sensor_id;sensor_type;location;lat;lon;timestamp;pressure;altitude;pressure_sealevel;temperature;humidity
23241;BME280;11789;53.482;9.862;2023-02-11T00:01:58;102931.22;;;4.42;100.00
23241;BME280;11789;53.482;9.862;2023-02-11T00:04:25;102939.75;;;4.42;100.00
23241;BME280;11789;53.482;9.862;2023-02-11T00:06:50;102938.69;;;4.39;100.00
23241;BME280;11789;53.482;9.862;2023-02-11T00:09:16;102931.00;;;4.39;100.00
23241;BME280;11789;53.482;9.862;2023-02-11T00:11:41;102938.78;;;4.40;100.00
23241;BME280;11789;53.482;9.862;2023-02-11T00:14:08;102933.56;;;4.39;100.00
23241;BME280;11789;53.482;9.862;2023-02-11T00:16:34;102942.31;;;4.42;100.00
23241;BME280;11789;53.482;9.862;2023-02-11T00:19:01;102936.41;;;4.43;100.00
23241;BME280;11789;53.482;9.862;2023-02-11T00:21:32;102920.97;;;4.42;100.00
23241;BME280;11789;53.482;9.862;2023-02-11T00:23:58;102918.28;;;4.40;100.00
23241;BME280;11789;53.482;9.862;2023-02-11T00:26:33;102912.41;;;4.41;100.00
23241;BME280;11789;53.482;9.862;2023-02-11T00:29:00;102909.03;;;4.42;100.00
23241;BME280;11789;53.482;9.862;2023-02-11T00:31:26;102903.91;;;4.42;100.00
23241;BME280;11789;53.482;9.862;2023-02-11T00:33:52;102908.22;;;4.43;100.00
23241;BME280;11789;53.482;9.862;2023-02-11T00:36:23;102906.47;;;4.42;100.00
23241;BME280;11789;53.482;9.862;2023-02-11T00:38:51;102901.44;;;4.44;100.00
23241;BME280;11789;53.482;9.862;2023-02-11T00:41:17;102907.34;;;4.43;100.00
23241;BME280;11789;53.482;9.862;2023-02-11T00:43:43;102903.19;;;4.45;100.00
23241;BME280;11789;53.482;9.862;2023-02-11T00:46:08;102899.75;;;4.45;100.00
23241;BME280;11789;53.482;9.862;2023-02-11T00:48:34;102897.37;;;4.48;100.00
23241;BME280;11789;53.482;9.862;2023-02-11T00:51:00;102905.06;;;4.48;100.00
23241;BME280;11789;53.482;9.862;2023-02-11T00:53:26;102895.78;;;4.50;100.00
23241;BME280;11789;53.482;9.862;2023-02-11T00:55:52;102901.63;;;4.47;100.00
23241;BME280;11789;53.482;9.862;2023-02-11T00:58:17;102892.19;;;4.46;100.00
23241;BME280;11789;53.482;9.862;2023-02-11T01:00:43;102887.94;;;4.47;100.00
23241;BME280;11789;53.482;9.862;2023-02-11T01:03:08;102892.19;;;4.46;100.00
23241;BME280;11789;53.482;9.862;2023-02-11T01:05:34;102888.00;;;4.48;100.00
23241;BME280;11789;53.482;9.862;2023-02-11T01:07:59;102890.50;;;4.47;100.00
23241;BME280;11789;53.482;9.862;2023-02-11T01:10:25;102879.25;;;4.45;100.00
23241;BME280;11789;53.482;9.862;2023-02-11T01:12:50;102873.34;;;4.46;100.00
23241;BME280;11789;53.482;9.862;2023-02-11T01:15:18;102872.56;;;4.47;100.00
23241;BME280;11789;53.482;9.862;2023-02-11T01:17:43;102875.19;;;4.48;100.00
23241;BME280;11789;53.482;9.862;2023-02-11T01:20:19;102865.84;;;4.49;100.00
23241;BME280;11789;53.482;9.862;2023-02-11T01:22:45;102865.22;;;4.53;100.00
23241;BME280;11789;53.482;9.862;2023-02-11T01:25:11;102866.03;;;4.52;100.00
23241;BME280;11789;53.482;9.862;2023-02-11T01:27:37;102869.28;;;4.49;100.00
23241;BME280;11789;53.482;9.862;2023-02-11T01:30:05;102871.84;;;4.49;100.00
23241;BME280;11789;53.482;9.862;2023-02-11T01:32:31;102864.97;;;4.48;100.00
23241;BME280;11789;53.482;9.862;2023-02-11T01:34:57;102874.41;;;4.49;100.00
23241;BME280;11789;53.482;9.862;2023-02-11T01:37:22;102875.19;;;4.48;100.00
23241;BME280;11789;53.482;9.862;2023-02-11T01:39:48;102865.84;;;4.49;100.00
23241;BME280;11789;53.482;9.862;2023-02-11T01:42:21;102873.53;;;4.49;100.00
23241;BME280;11789;53.482;9.862;2023-02-11T01:44:51;102875.38;;;4.51;100.00
23241;BME280;11789;53.482;9.862;2023-02-11T01:47:18;102859.91;;;4.50;100.00
23241;BME280;11789;53.482;9.862;2023-02-11T01:49:47;102858.16;;;4.49;100.00
23241;BME280;11789;53.482;9.862;2023-02-11T01:52:25;102860.03;;;4.51;100.00
23241;BME280;11789;53.482;9.862;2023-02-11T01:54:54;102857.53;;;4.53;100.00
23241;BME280;11789;53.482;9.862;2023-02-11T01:57:45;102867.78;;;4.53;100.00
23241;BME280;11789;53.482;9.862;2023-02-11T02:00:19;102860.91;;;4.52;100.00
23241;BME280;11789;53.482;9.862;2023-02-11T02:02:56;102853.37;;;4.55;100.00
23241;BME280;11789;53.482;9.862;2023-02-11T02:05:43;102849.12;;;4.55;100.00
23241;BME280;11789;53.482;9.862;2023-02-11T02:08:23;102847.44;;;4.56;100.00
23241;BME280;11789;53.482;9.862;2023-02-11T02:10:53;102860.34;;;4.57;100.00
23241;BME280;11789;53.482;9.862;2023-02-11T02:13:23;102847.56;;;4.57;100.00
23241;BME280;11789;53.482;9.862;2023-02-11T02:15:54;102840.88;;;4.61;100.00
23241;BME280;11789;53.482;9.862;2023-02-11T02:19:02;102836.56;;;4.60;100.00
23241;BME280;11789;53.482;9.862;2023-02-11T02:24:19;102829.75;;;4.60;100.00
23241;BME280;11789;53.482;9.862;2023-02-11T02:35:03;102828.34;;;4.65;100.00
23241;BME280;11789;53.482;9.862;2023-02-11T02:37:40;102814.66;;;4.65;100.00
23241;BME280;11789;53.482;9.862;2023-02-11T02:40:16;102816.41;;;4.66;100.00
23241;BME280;11789;53.482;9.862;2023-02-11T02:42:43;102819.87;;;4.66;100.00
23241;BME280;11789;53.482;9.862;2023-02-11T02:45:10;102796.72;;;4.65;100.00
23241;BME280;11789;53.482;9.862;2023-02-11T02:47:36;102789.22;;;4.68;100.00
23241;BME280;11789;53.482;9.862;2023-02-11T02:50:02;102783.22;;;4.67;100.00
23241;BME280;11789;53.482;9.862;2023-02-11T02:52:41;102795.13;;;4.67;100.00
23241;BME280;11789;53.482;9.862;2023-02-11T03:01:02;102794.47;;;4.71;100.00
23241;BME280;11789;53.482;9.862;2023-02-11T03:06:06;102785.16;;;4.72;100.00
23241;BME280;11789;53.482;9.862;2023-02-11T03:08:46;102789.34;;;4.71;100.00
23241;BME280;11789;53.482;9.862;2023-02-11T03:11:16;102782.47;;;4.70;100.00
23241;BME280;11789;53.482;9.862;2023-02-11T03:13:44;102773.03;;;4.69;100.00
23241;BME280;11789;53.482;9.862;2023-02-11T03:16:17;102779.91;;;4.70;100.00
23241;BME280;11789;53.482;9.862;2023-02-11T03:18:49;102791.03;;;4.71;100.00
23241;BME280;11789;53.482;9.862;2023-02-11T03:21:18;102788.59;;;4.72;100.00
23241;BME280;11789;53.482;9.862;2023-02-11T03:23:52;102787.84;;;4.75;100.00
23241;BME280;11789;53.482;9.862;2023-02-11T03:26:27;102783.59;;;4.75;100.00
23241;BME280;11789;53.482;9.862;2023-02-11T03:29:07;102777.78;;;4.78;100.00
23241;BME280;11789;53.482;9.862;2023-02-11T03:31:46;102781.28;;;4.80;100.00
23241;BME280;11789;53.482;9.862;2023-02-11T03:34:32;102774.59;;;4.82;100.00
23241;BME280;11789;53.482;9.862;2023-02-11T03:37:10;102778.81;;;4.81;100.00
23241;BME280;11789;53.482;9.862;2023-02-11T03:39:51;102778.09;;;4.84;100.00
23241;BME280;11789;53.482;9.862;2023-02-11T03:42:18;102768.72;;;4.84;100.00
23241;BME280;11789;53.482;9.862;2023-02-11T03:44:51;102762.91;;;4.87;100.00
23241;BME280;11789;53.482;9.862;2023-02-11T03:47:20;102764.81;;;4.91;100.00
23241;BME280;11789;53.482;9.862;2023-02-11T03:49:49;102764.03;;;4.92;100.00
23241;BME280;11789;53.482;9.862;2023-02-11T03:52:19;102767.59;;;4.95;100.00
23241;BME280;11789;53.482;9.862;2023-02-11T03:54:49;102756.66;;;4.98;100.00
23241;BME280;11789;53.482;9.862;2023-02-11T03:57:16;102763.53;;;4.99;100.00
23241;BME280;11789;53.482;9.862;2023-02-11T03:59:57;102754.16;;;5.00;100.00
23241;BME280;11789;53.482;9.862;2023-02-11T04:02:27;102745.84;;;5.04;100.00
23241;BME280;11789;53.482;9.862;2023-02-11T04:04:53;102756.09;;;5.04;100.00
23241;BME280;11789;53.482;9.862;2023-02-11T04:07:19;102747.59;;;5.05;100.00
23241;BME280;11789;53.482;9.862;2023-02-11T04:09:45;102758.00;;;5.08;100.00
23241;BME280;11789;53.482;9.862;2023-02-11T04:12:10;102752.16;;;5.10;100.00
23241;BME280;11789;53.482;9.862;2023-02-11T04:14:36;102759.91;;;5.12;100.00
23241;BME280;11789;53.482;9.862;2023-02-11T04:17:01;102761.59;;;5.11;100.00
23241;BME280;11789;53.482;9.862;2023-02-11T04:19:30;102756.56;;;5.13;100.00
23241;BME280;11789;53.482;9.862;2023-02-11T04:21:56;102758.31;;;5.14;100.00
23241;BME280;11789;53.482;9.862;2023-02-11T04:24:22;102760.25;;;5.18;100.00
23241;BME280;11789;53.482;9.862;2023-02-11T04:26:47;102766.16;;;5.17;100.00
23241;BME280;11789;53.482;9.862;2023-02-11T04:29:12;102763.69;;;5.18;100.00
23241;BME280;11789;53.482;9.862;2023-02-11T04:31:38;102763.84;;;5.21;100.00
23241;BME280;11789;53.482;9.862;2023-02-11T04:34:04;102758.69;;;5.21;100.00
23241;BME280;11789;53.482;9.862;2023-02-11T04:36:29;102755.25;;;5.21;100.00
23241;BME280;11789;53.482;9.862;2023-02-11T04:38:55;102768.09;;;5.21;100.00
23241;BME280;11789;53.482;9.862;2023-02-11T04:41:20;102769.88;;;5.22;100.00
23241;BME280;11789;53.482;9.862;2023-02-11T04:43:45;102765.63;;;5.23;100.00
23241;BME280;11789;53.482;9.862;2023-02-11T04:46:11;102757.06;;;5.22;100.00
23241;BME280;11789;53.482;9.862;2023-02-11T04:48:36;102755.37;;;5.23;100.00
23241;BME280;11789;53.482;9.862;2023-02-11T04:51:02;102758.81;;;5.23;100.00
23241;BME280;11789;53.482;9.862;2023-02-11T04:53:27;102763.13;;;5.24;100.00
23241;BME280;11789;53.482;9.862;2023-02-11T04:55:53;102765.69;;;5.24;100.00
23241;BME280;11789;53.482;9.862;2023-02-11T04:58:19;102765.06;;;5.28;100.00
23241;BME280;11789;53.482;9.862;2023-02-11T05:00:45;102758.16;;;5.27;100.00
23241;BME280;11789;53.482;9.862;2023-02-11T05:03:11;102762.37;;;5.27;100.00
23241;BME280;11789;53.482;9.862;2023-02-11T05:05:38;102753.03;;;5.27;100.00
23241;BME280;11789;53.482;9.862;2023-02-11T05:08:06;102771.94;;;5.29;100.00
23241;BME280;11789;53.482;9.862;2023-02-11T05:10:31;102763.38;;;5.29;100.00
23241;BME280;11789;53.482;9.862;2023-02-11T05:12:57;102777.88;;;5.28;100.00
23241;BME280;11789;53.482;9.862;2023-02-11T05:15:22;102781.38;;;5.30;100.00
23241;BME280;11789;53.482;9.862;2023-02-11T05:17:48;102780.56;;;5.31;100.00
23241;BME280;11789;53.482;9.862;2023-02-11T05:20:14;102778.81;;;5.30;100.00
23241;BME280;11789;53.482;9.862;2023-02-11T05:22:39;102778.81;;;5.30;100.00
23241;BME280;11789;53.482;9.862;2023-02-11T05:25:05;102776.25;;;5.30;100.00
23241;BME280;11789;53.482;9.862;2023-02-11T05:27:31;102776.25;;;5.30;100.00
23241;BME280;11789;53.482;9.862;2023-02-11T05:29:56;102767.75;;;5.31;100.00
23241;BME280;11789;53.482;9.862;2023-02-11T05:32:21;102769.44;;;5.31;100.00
23241;BME280;11789;53.482;9.862;2023-02-11T05:34:47;102761.84;;;5.32;100.00
23241;BME280;11789;53.482;9.862;2023-02-11T05:37:12;102765.19;;;5.31;100.00
23241;BME280;11789;53.482;9.862;2023-02-11T05:39:38;102769.37;;;5.29;100.00
23241;BME280;11789;53.482;9.862;2023-02-11T05:42:03;102770.25;;;5.30;100.00
23241;BME280;11789;53.482;9.862;2023-02-11T05:44:29;102765.94;;;5.29;100.00
23241;BME280;11789;53.482;9.862;2023-02-11T05:46:54;102758.94;;;5.26;100.00
23241;BME280;11789;53.482;9.862;2023-02-11T05:49:20;102763.19;;;5.26;100.00
23241;BME280;11789;53.482;9.862;2023-02-11T05:51:45;102770.00;;;5.25;100.00
23241;BME280;11789;53.482;9.862;2023-02-11T05:54:11;102773.38;;;5.24;100.00
23241;BME280;11789;53.482;9.862;2023-02-11T05:56:36;102765.69;;;5.24;100.00
23241;BME280;11789;53.482;9.862;2023-02-11T05:59:02;102758.94;;;5.26;100.00
23241;BME280;11789;53.482;9.862;2023-02-11T06:01:28;102754.63;;;5.25;100.00
23241;BME280;11789;53.482;9.862;2023-02-11T06:03:54;102749.50;;;5.25;100.00
23241;BME280;11789;53.482;9.862;2023-02-11T06:06:19;102761.44;;;5.25;100.00
23241;BME280;11789;53.482;9.862;2023-02-11T06:08:45;102763.28;;;5.27;100.00
23241;BME280;11789;53.482;9.862;2023-02-11T06:11:13;102758.94;;;5.26;100.00
23241;BME280;11789;53.482;9.862;2023-02-11T06:13:39;102761.50;;;5.26;100.00
23241;BME280;11789;53.482;9.862;2023-02-11T06:16:04;102749.66;;;5.28;100.00
23241;BME280;11789;53.482;9.862;2023-02-11T06:18:30;102744.44;;;5.27;100.00
23241;BME280;11789;53.482;9.862;2023-02-11T06:20:58;102753.97;;;5.29;100.00
23241;BME280;11789;53.482;9.862;2023-02-11T06:23:23;102749.72;;;5.30;100.00
23241;BME280;11789;53.482;9.862;2023-02-11T06:25:49;102737.06;;;5.33;100.00
23241;BME280;11789;53.482;9.862;2023-02-11T06:28:15;102722.47;;;5.32;100.00
23241;BME280;11789;53.482;9.862;2023-02-11T06:30:40;102727.59;;;5.32;100.00
23241;BME280;11789;53.482;9.862;2023-02-11T06:33:05;102716.47;;;5.31;100.00
23241;BME280;11789;53.482;9.862;2023-02-11T06:35:32;102713.25;;;5.35;100.00
23241;BME280;11789;53.482;9.862;2023-02-11T06:37:59;102720.12;;;5.36;100.00
23241;BME280;11789;53.482;9.862;2023-02-11T06:40:25;102741.53;;;5.37;100.00
23241;BME280;11789;53.482;9.862;2023-02-11T06:42:50;102757.84;;;5.37;100.00
23241;BME280;11789;53.482;9.862;2023-02-11T06:45:16;102772.31;;;5.37;100.00
23241;BME280;11789;53.482;9.862;2023-02-11T06:47:41;102769.75;;;5.37;100.00
23241;BME280;11789;53.482;9.862;2023-02-11T06:50:10;102774.97;;;5.38;100.00
23241;BME280;11789;53.482;9.862;2023-02-11T06:52:36;102781.06;;;5.40;100.00
23241;BME280;11789;53.482;9.862;2023-02-11T06:55:02;102781.88;;;5.39;100.00
23241;BME280;11789;53.482;9.862;2023-02-11T06:57:29;102787.94;;;5.41;100.00
23241;BME280;11789;53.482;9.862;2023-02-11T06:59:54;102776.91;;;5.42;100.00
23241;BME280;11789;53.482;9.862;2023-02-11T07:02:19;102778.72;;;5.45;100.00
23241;BME280;11789;53.482;9.862;2023-02-11T07:04:45;102784.66;;;5.44;100.00
23241;BME280;11789;53.482;9.862;2023-02-11T07:07:10;102786.41;;;5.45;100.00
23241;BME280;11789;53.482;9.862;2023-02-11T07:09:36;102785.53;;;5.44;100.00
23241;BME280;11789;53.482;9.862;2023-02-11T07:12:01;102795.81;;;5.44;100.00
23241;BME280;11789;53.482;9.862;2023-02-11T07:14:27;102800.94;;;5.44;100.00
23241;BME280;11789;53.482;9.862;2023-02-11T07:16:52;102796.75;;;5.46;100.00
23241;BME280;11789;53.482;9.862;2023-02-11T07:19:17;102795.87;;;5.46;100.00
23241;BME280;11789;53.482;9.862;2023-02-11T07:21:43;102794.19;;;5.46;100.00
23241;BME280;11789;53.482;9.862;2023-02-11T07:24:09;102804.44;;;5.46;100.00
23241;BME280;11789;53.482;9.862;2023-02-11T07:26:35;102811.38;;;5.47;100.00
23241;BME280;11789;53.482;9.862;2023-02-11T07:29:01;102830.97;;;5.47;100.00
23241;BME280;11789;53.482;9.862;2023-02-11T07:31:27;102833.53;;;5.47;100.00
23241;BME280;11789;53.482;9.862;2023-02-11T07:33:56;102822.50;;;5.48;100.00
23241;BME280;11789;53.482;9.862;2023-02-11T07:36:22;102814.88;;;5.50;100.00
23241;BME280;11789;53.482;9.862;2023-02-11T07:38:47;102818.25;;;5.49;100.00
23241;BME280;11789;53.482;9.862;2023-02-11T07:41:16;102818.31;;;5.50;100.00
23241;BME280;11789;53.482;9.862;2023-02-11T07:43:42;102828.66;;;5.52;100.00
23241;BME280;11789;53.482;9.862;2023-02-11T07:46:11;102844.03;;;5.52;100.00
23241;BME280;11789;53.482;9.862;2023-02-11T07:48:37;102838.12;;;5.53;100.00
23241;BME280;11789;53.482;9.862;2023-02-11T07:51:18;102833.06;;;5.54;100.00
23241;BME280;11789;53.482;9.862;2023-02-11T07:53:43;102839.97;;;5.55;100.00
23241;BME280;11789;53.482;9.862;2023-02-11T07:56:10;102839.25;;;5.58;100.00
23241;BME280;11789;53.482;9.862;2023-02-11T07:58:36;102841.00;;;5.59;100.00
23241;BME280;11789;53.482;9.862;2023-02-11T08:01:06;102844.53;;;5.61;100.00
23241;BME280;11789;53.482;9.862;2023-02-11T08:03:33;102846.22;;;5.60;100.00
23241;BME280;11789;53.482;9.862;2023-02-11T08:06:07;102849.66;;;5.61;100.00
23241;BME280;11789;53.482;9.862;2023-02-11T08:08:33;102849.66;;;5.61;100.00
23241;BME280;11789;53.482;9.862;2023-02-11T08:11:05;102866.91;;;5.63;100.00
23241;BME280;11789;53.482;9.862;2023-02-11T08:13:31;102871.22;;;5.64;100.00
23241;BME280;11789;53.482;9.862;2023-02-11T08:15:57;102869.59;;;5.66;100.00
23241;BME280;11789;53.482;9.862;2023-02-11T08:18:23;102874.75;;;5.66;100.00
23241;BME280;11789;53.482;9.862;2023-02-11T08:20:48;102871.38;;;5.67;100.00
23241;BME280;11789;53.482;9.862;2023-02-11T08:23:13;102860.22;;;5.67;100.00
23241;BME280;11789;53.482;9.862;2023-02-11T08:25:39;102865.59;;;5.71;100.00
23241;BME280;11789;53.482;9.862;2023-02-11T08:28:04;102864.88;;;5.74;100.00
23241;BME280;11789;53.482;9.862;2023-02-11T08:30:30;102865.84;;;5.76;100.00
23241;BME280;11789;53.482;9.862;2023-02-11T08:32:55;102870.25;;;5.79;100.00
23241;BME280;11789;53.482;9.862;2023-02-11T08:35:21;102870.31;;;5.80;100.00
23241;BME280;11789;53.482;9.862;2023-02-11T08:37:46;102872.00;;;5.80;100.00
23241;BME280;11789;53.482;9.862;2023-02-11T08:40:12;102877.22;;;5.81;100.00
23241;BME280;11789;53.482;9.862;2023-02-11T08:42:37;102877.22;;;5.81;100.00
23241;BME280;11789;53.482;9.862;2023-02-11T08:45:03;102886.78;;;5.84;100.00
23241;BME280;11789;53.482;9.862;2023-02-11T08:47:29;102895.34;;;5.84;100.00
23241;BME280;11789;53.482;9.862;2023-02-11T08:49:55;102901.44;;;5.86;100.00
23241;BME280;11789;53.482;9.862;2023-02-11T08:52:21;102896.38;;;5.88;100.00
23241;BME280;11789;53.482;9.862;2023-02-11T08:54:46;102893.91;;;5.89;100.00
23241;BME280;11789;53.482;9.862;2023-02-11T08:57:12;102898.22;;;5.90;100.00
23241;BME280;11789;53.482;9.862;2023-02-11T08:59:37;102901.00;;;5.93;100.00
23241;BME280;11789;53.482;9.862;2023-02-11T09:02:04;102901.00;;;5.93;100.00
23241;BME280;11789;53.482;9.862;2023-02-11T09:04:30;102906.25;;;5.96;100.00
23241;BME280;11789;53.482;9.862;2023-02-11T09:06:56;102900.31;;;5.97;100.00
23241;BME280;11789;53.482;9.862;2023-02-11T09:09:21;102907.25;;;5.98;100.00
23241;BME280;11789;53.482;9.862;2023-02-11T09:11:47;102912.28;;;5.97;100.00
23241;BME280;11789;53.482;9.862;2023-02-11T09:14:21;102916.69;;;6.00;100.00
23241;BME280;11789;53.482;9.862;2023-02-11T09:16:48;102914.13;;;6.00;100.00
23241;BME280;11789;53.482;9.862;2023-02-11T09:19:14;102918.37;;;5.99;100.00
23241;BME280;11789;53.482;9.862;2023-02-11T09:21:40;102927.84;;;6.00;100.00
23241;BME280;11789;53.482;9.862;2023-02-11T09:24:05;102919.16;;;5.98;100.00
23241;BME280;11789;53.482;9.862;2023-02-11T09:26:32;102909.81;;;5.98;100.00
23241;BME280;11789;53.482;9.862;2023-02-11T09:28:59;102914.19;;;6.01;100.00
23241;BME280;11789;53.482;9.862;2023-02-11T09:31:27;102920.22;;;6.02;100.00
23241;BME280;11789;53.482;9.862;2023-02-11T09:33:55;102924.63;;;6.04;100.00
23241;BME280;11789;53.482;9.862;2023-02-11T09:36:26;102914.37;;;6.04;100.00
23241;BME280;11789;53.482;9.862;2023-02-11T09:38:54;102919.62;;;6.07;100.00
23241;BME280;11789;53.482;9.862;2023-02-11T09:43:51;102920.63;;;6.09;100.00
23241;BME280;11789;53.482;9.862;2023-02-11T09:46:18;102934.34;;;6.10;100.00
23241;BME280;11789;53.482;9.862;2023-02-11T09:48:48;102936.97;;;6.11;100.00
23241;BME280;11789;53.482;9.862;2023-02-11T09:51:22;102938.72;;;6.12;100.00
23241;BME280;11789;53.482;9.862;2023-02-11T09:53:57;102932.06;;;6.16;100.00
23241;BME280;11789;53.482;9.862;2023-02-11T09:56:26;102927.00;;;6.17;100.00
23241;BME280;11789;53.482;9.862;2023-02-11T09:58:52;102921.16;;;6.20;100.00
23241;BME280;11789;53.482;9.862;2023-02-11T10:10:33;102946.25;;;6.26;100.00
23241;BME280;11789;53.482;9.862;2023-02-11T10:13:23;102942.00;;;6.26;100.00
23241;BME280;11789;53.482;9.862;2023-02-11T10:18:45;102945.50;;;6.28;100.00
23241;BME280;11789;53.482;9.862;2023-02-11T10:21:22;102951.56;;;6.29;100.00
23241;BME280;11789;53.482;9.862;2023-02-11T10:23:56;102951.47;;;6.27;100.00
23241;BME280;11789;53.482;9.862;2023-02-11T10:26:26;102960.94;;;6.28;100.00
23241;BME280;11789;53.482;9.862;2023-02-11T10:28:59;102949.88;;;6.29;100.00
23241;BME280;11789;53.482;9.862;2023-02-11T10:31:36;102956.78;;;6.30;100.00
23241;BME280;11789;53.482;9.862;2023-02-11T10:34:06;102958.53;;;6.31;100.00
23241;BME280;11789;53.482;9.862;2023-02-11T10:36:36;102961.09;;;6.31;100.00
23241;BME280;11789;53.482;9.862;2023-02-11T10:39:20;102963.72;;;6.33;100.00
23241;BME280;11789;53.482;9.862;2023-02-11T10:42:04;102968.97;;;6.34;100.00
23241;BME280;11789;53.482;9.862;2023-02-11T10:44:33;102970.66;;;6.34;100.00
23241;BME280;11789;53.482;9.862;2023-02-11T10:47:11;102967.28;;;6.35;100.00
23241;BME280;11789;53.482;9.862;2023-02-11T10:49:43;102974.19;;;6.36;100.00
23241;BME280;11789;53.482;9.862;2023-02-11T10:52:13;102969.91;;;6.36;100.00
23241;BME280;11789;53.482;9.862;2023-02-11T10:54:40;102968.28;;;6.38;100.00
23241;BME280;11789;53.482;9.862;2023-02-11T10:57:05;102965.72;;;6.38;100.00
23241;BME280;11789;53.482;9.862;2023-02-11T10:59:36;102959.72;;;6.38;100.00
23241;BME280;11789;53.482;9.862;2023-02-11T11:02:21;102958.81;;;6.37;100.00
23241;BME280;11789;53.482;9.862;2023-02-11T11:04:47;102955.44;;;6.38;100.00
23241;BME280;11789;53.482;9.862;2023-02-11T11:07:25;102947.72;;;6.38;100.00
23241;BME280;11789;53.482;9.862;2023-02-11T11:10:26;102958.19;;;6.41;100.00
23241;BME280;11789;53.482;9.862;2023-02-11T11:13:24;102960.81;;;6.43;100.00
23241;BME280;11789;53.482;9.862;2023-02-11T11:18:41;102963.78;;;6.50;100.00
23241;BME280;11789;53.482;9.862;2023-02-11T11:23:50;102944.81;;;6.48;100.00
23241;BME280;11789;53.482;9.862;2023-02-11T11:26:20;102940.44;;;6.46;100.00
23241;BME280;11789;53.482;9.862;2023-02-11T11:28:55;102950.62;;;6.44;100.00
23241;BME280;11789;53.482;9.862;2023-02-11T11:31:32;102952.31;;;6.44;100.00
23241;BME280;11789;53.482;9.862;2023-02-11T11:34:17;102958.34;;;6.44;100.00
23241;BME280;11789;53.482;9.862;2023-02-11T11:36:45;102953.22;;;6.44;100.00
23241;BME280;11789;53.482;9.862;2023-02-11T11:39:37;102956.66;;;6.45;100.00
23241;BME280;11789;53.482;9.862;2023-02-11T11:42:19;102965.37;;;6.48;100.00
23241;BME280;11789;53.482;9.862;2023-02-11T11:44:56;102971.50;;;6.50;100.00
23241;BME280;11789;53.482;9.862;2023-02-11T11:50:59;102956.38;;;6.57;100.00
23241;BME280;11789;53.482;9.862;2023-02-11T11:53:39;102965.03;;;6.59;100.00
23241;BME280;11789;53.482;9.862;2023-02-11T11:56:11;102960.84;;;6.61;100.00
23241;BME280;11789;53.482;9.862;2023-02-11T11:58:38;102962.78;;;6.65;100.00
23241;BME280;11789;53.482;9.862;2023-02-11T12:15:33;102963.66;;;6.83;100.00
23241;BME280;11789;53.482;9.862;2023-02-11T12:18:33;102967.19;;;6.85;100.00
23241;BME280;11789;53.482;9.862;2023-02-11T12:26:23;102974.75;;;6.82;100.00
23241;BME280;11789;53.482;9.862;2023-02-11T12:31:43;102978.13;;;6.81;100.00
23241;BME280;11789;53.482;9.862;2023-02-11T12:47:44;102999.50;;;6.80;100.00
23241;BME280;11789;53.482;9.862;2023-02-11T12:53:17;103003.84;;;6.81;100.00
23241;BME280;11789;53.482;9.862;2023-02-11T12:55:51;103006.41;;;6.81;100.00
23241;BME280;11789;53.482;9.862;2023-02-11T12:58:22;102999.50;;;6.80;100.00
23241;BME280;11789;53.482;9.862;2023-02-11T13:00:54;102998.53;;;6.78;100.00
23241;BME280;11789;53.482;9.862;2023-02-11T13:03:28;102996.06;;;6.80;100.00
23241;BME280;11789;53.482;9.862;2023-02-11T13:06:03;102993.50;;;6.80;100.00
23241;BME280;11789;53.482;9.862;2023-02-11T13:08:33;102996.94;;;6.80;100.00
23241;BME280;11789;53.482;9.862;2023-02-11T13:11:23;102997.88;;;6.82;100.00
23241;BME280;11789;53.482;9.862;2023-02-11T13:16:37;102987.53;;;6.81;100.00
23241;BME280;11789;53.482;9.862;2023-02-11T13:25:09;102981.66;;;6.83;100.00
23241;BME280;11789;53.482;9.862;2023-02-11T13:27:49;102986.06;;;6.86;100.00
23241;BME280;11789;53.482;9.862;2023-02-11T13:41:01;103004.28;;;6.90;100.00
23241;BME280;11789;53.482;9.862;2023-02-11T13:43:27;103006.88;;;6.90;100.00
23241;BME280;11789;53.482;9.862;2023-02-11T13:46:13;103011.91;;;6.89;100.00
23241;BME280;11789;53.482;9.862;2023-02-11T13:48:50;103011.03;;;6.88;100.00
23241;BME280;11789;53.482;9.862;2023-02-11T13:51:43;103005.06;;;6.89;100.00
23241;BME280;11789;53.482;9.862;2023-02-11T13:54:29;103004.19;;;6.89;100.00
23241;BME280;11789;53.482;9.862;2023-02-11T13:57:22;102997.38;;;6.89;100.00
23241;BME280;11789;53.482;9.862;2023-02-11T13:59:59;102993.19;;;6.91;100.00
23241;BME280;11789;53.482;9.862;2023-02-11T14:02:34;102993.25;;;6.93;100.00
23241;BME280;11789;53.482;9.862;2023-02-11T14:05:22;102999.44;;;6.96;100.00
23241;BME280;11789;53.482;9.862;2023-02-11T14:11:00;103002.25;;;7.01;100.00
23241;BME280;11789;53.482;9.862;2023-02-11T14:13:31;103006.50;;;7.00;100.00
23241;BME280;11789;53.482;9.862;2023-02-11T14:16:17;103005.53;;;6.98;100.00
23241;BME280;11789;53.482;9.862;2023-02-11T14:21:21;103014.88;;;6.96;100.00
23241;BME280;11789;53.482;9.862;2023-02-11T14:23:50;103016.47;;;6.94;100.00
23241;BME280;11789;53.482;9.862;2023-02-11T14:29:01;103026.69;;;6.93;100.00
23241;BME280;11789;53.482;9.862;2023-02-11T14:39:53;103035.22;;;6.92;100.00
23241;BME280;11789;53.482;9.862;2023-02-11T14:42:23;103030.94;;;6.92;100.00
23241;BME280;11789;53.482;9.862;2023-02-11T14:44:54;103030.78;;;6.89;100.00
23241;BME280;11789;53.482;9.862;2023-02-11T14:47:28;103032.66;;;6.92;100.00
23241;BME280;11789;53.482;9.862;2023-02-11T14:50:00;103046.38;;;6.92;100.00
23241;BME280;11789;53.482;9.862;2023-02-11T14:52:31;103054.09;;;6.92;100.00
23241;BME280;11789;53.482;9.862;2023-02-11T14:55:21;103060.06;;;6.91;100.00
23241;BME280;11789;53.482;9.862;2023-02-11T14:58:11;103073.84;;;6.93;100.00
23241;BME280;11789;53.482;9.862;2023-02-11T15:01:25;103080.63;;;6.91;100.00
23241;BME280;11789;53.482;9.862;2023-02-11T15:03:36;103089.16;;;6.90;100.00